SCYC weather

La Capilla Airport
Puyehue, Los Lagos Region, Chile

Public forecast

Using degrees Celsius for public forecast. Weather courtesy of forecast.io.

Closest aviation weather report (METAR) to La Capilla Airport

Report is more than 6 hours old.

Closest report is Cañal Bajo Carlos - Hott Siebert Airport, 13.7 nm (25.3 km) W. Retrieved 2019/10/14 21:00 UTC (12 hours ago):

SCJO 142100Z 11007KT CAVOK 16/02 Q1017

Closest aviation forecast (TAF) to La Capilla Airport

Forecast is more than 12 hours old.

Closest forecast is Cañal Bajo Carlos - Hott Siebert Airport, 13.7 nm (25.3 km) W. Retrieved 2019/10/14 12:33 UTC (20 hours ago):

TAF SCJO 141029Z 1412/1424 18012KT CAVOK TN03/1412Z TX19/1419Z BECMG 1415/1417 12010KT BECMG 1421/1423 SCT040 BKN100